createdAt,value
2022-07-29T00:01:58.090Z,14.87
2022-07-29T00:06:59.807Z,14.75
2022-07-29T00:12:01.640Z,14.70
2022-07-29T00:17:03.337Z,14.68
2022-07-29T00:22:05.059Z,14.69
2022-07-29T00:27:06.770Z,14.76
2022-07-29T00:32:08.468Z,14.69
2022-07-29T00:37:10.147Z,14.57
2022-07-29T00:42:11.922Z,14.49
2022-07-29T00:47:13.699Z,14.39
2022-07-29T00:52:16.974Z,14.40
2022-07-29T00:57:19.469Z,14.36
2022-07-29T01:02:22.019Z,14.39
2022-07-29T01:07:24.611Z,14.44
2022-07-29T01:12:27.111Z,14.44
2022-07-29T01:17:53.384Z,14.47
2022-07-29T01:23:23.123Z,14.48
2022-07-29T01:28:48.700Z,14.52
2022-07-29T01:33:53.394Z,14.47
2022-07-29T01:38:59.921Z,14.41
2022-07-29T01:44:06.457Z,14.41
2022-07-29T01:49:15.217Z,14.46
2022-07-29T01:54:38.733Z,14.45
2022-07-29T01:59:40.456Z,14.38
2022-07-29T02:04:42.319Z,14.49
2022-07-29T02:09:44.031Z,14.43
2022-07-29T02:14:50.200Z,14.45
2022-07-29T02:19:52.672Z,14.46
2022-07-29T02:24:54.640Z,14.50
2022-07-29T02:29:56.336Z,14.52
2022-07-29T02:34:58.049Z,14.50
2022-07-29T02:39:59.753Z,14.59
2022-07-29T02:45:01.431Z,14.57
2022-07-29T02:50:07.780Z,14.57
2022-07-29T02:55:46.806Z,14.52
2022-07-29T03:00:48.480Z,14.56
2022-07-29T03:05:50.165Z,14.61
2022-07-29T03:10:51.852Z,14.47
2022-07-29T03:15:54.190Z,14.42
2022-07-29T03:20:55.991Z,14.27
2022-07-29T03:25:57.686Z,14.10
2022-07-29T03:30:59.451Z,14.04
2022-07-29T03:36:03.367Z,14.05
2022-07-29T03:41:07.276Z,14.04
2022-07-29T03:46:09.233Z,14.04
2022-07-29T03:51:11.761Z,14.05
2022-07-29T03:56:13.601Z,13.99
2022-07-29T04:01:15.326Z,13.97
2022-07-29T04:06:17.054Z,13.99
2022-07-29T04:11:18.716Z,14.01
2022-07-29T04:16:20.405Z,14.12
2022-07-29T04:21:22.157Z,14.28
2022-07-29T04:26:23.821Z,14.43
2022-07-29T04:31:26.125Z,14.46
2022-07-29T04:36:29.167Z,14.67
2022-07-29T04:41:32.755Z,14.98
2022-07-29T04:46:35.703Z,15.09
2022-07-29T04:51:37.544Z,15.18
2022-07-29T04:56:39.214Z,15.31
2022-07-29T05:01:40.938Z,15.32
2022-07-29T05:06:42.615Z,15.35
2022-07-29T05:11:44.288Z,15.44
2022-07-29T05:16:45.972Z,15.48
2022-07-29T05:21:47.637Z,15.51
2022-07-29T05:26:49.307Z,15.59
2022-07-29T05:31:52.754Z,15.63
2022-07-29T05:36:54.443Z,15.71
2022-07-29T05:41:56.133Z,15.65
2022-07-29T05:46:57.805Z,15.69
2022-07-29T05:51:59.489Z,15.79
2022-07-29T05:57:01.289Z,15.74
2022-07-29T06:02:02.950Z,15.71
2022-07-29T06:07:04.730Z,15.71
2022-07-29T06:12:06.442Z,15.78
2022-07-29T06:17:08.122Z,15.80
2022-07-29T06:22:09.801Z,15.98
2022-07-29T06:27:15.022Z,16.17
2022-07-29T06:32:16.847Z,16.27
2022-07-29T06:37:18.670Z,16.42
2022-07-29T06:42:20.967Z,16.54
2022-07-29T06:47:22.662Z,16.71
2022-07-29T06:52:24.334Z,16.83
2022-07-29T06:57:26.022Z,16.97
2022-07-29T07:02:27.698Z,17.14
2022-07-29T07:07:29.721Z,17.25
2022-07-29T07:12:31.364Z,17.35
2022-07-29T07:17:33.349Z,17.44
2022-07-29T07:22:38.772Z,17.54
2022-07-29T07:27:40.737Z,17.69
2022-07-29T07:32:42.422Z,17.81
2022-07-29T07:37:44.122Z,17.94
2022-07-29T07:42:45.795Z,18.09
2022-07-29T07:47:47.718Z,18.31
2022-07-29T07:52:53.594Z,18.50
2022-07-29T07:57:55.658Z,18.72
2022-07-29T08:02:57.374Z,18.91
2022-07-29T08:07:59.088Z,19.25
2022-07-29T08:13:02.376Z,19.48
2022-07-29T08:18:08.458Z,19.67
2022-07-29T08:23:10.665Z,19.74
2022-07-29T08:28:12.343Z,19.83
2022-07-29T08:33:14.086Z,19.98
2022-07-29T08:38:16.905Z,20.09
2022-07-29T08:43:18.589Z,20.11
2022-07-29T08:48:24.535Z,20.23
2022-07-29T08:53:27.678Z,20.41
2022-07-29T08:58:32.571Z,20.57
2022-07-29T09:03:38.630Z,20.80
2022-07-29T09:08:40.340Z,21.01
2022-07-29T09:13:42.028Z,21.15
2022-07-29T09:18:45.101Z,21.28
2022-07-29T09:24:06.504Z,21.47
2022-07-29T09:29:12.230Z,21.66
2022-07-29T09:34:15.228Z,21.95
2022-07-29T09:39:18.259Z,22.19
2022-07-29T09:44:24.165Z,22.48
2022-07-29T09:49:26.068Z,22.65
2022-07-29T09:54:28.628Z,22.83
2022-07-29T09:59:30.300Z,23.01
2022-07-29T10:04:39.940Z,23.20
2022-07-29T10:09:41.608Z,23.32
2022-07-29T10:14:43.440Z,23.40
2022-07-29T10:19:45.145Z,23.42
2022-07-29T10:24:46.841Z,23.52
2022-07-29T10:29:48.641Z,23.59
2022-07-29T10:35:14.548Z,23.80
2022-07-29T10:40:42.119Z,23.97
2022-07-29T10:45:47.817Z,24.19
2022-07-29T10:50:56.356Z,24.44
2022-07-29T10:55:58.277Z,24.53
2022-07-29T11:01:00.179Z,24.98
2022-07-29T11:06:08.513Z,25.60
2022-07-29T11:11:29.836Z,25.91
2022-07-29T11:17:01.255Z,25.88
2022-07-29T11:22:03.044Z,25.86
2022-07-29T11:27:08.516Z,25.87
2022-07-29T11:32:15.813Z,25.91
2022-07-29T11:37:28.110Z,25.86
2022-07-29T11:42:34.279Z,26.00
2022-07-29T11:47:46.069Z,26.15
2022-07-29T11:52:49.853Z,26.34
2022-07-29T11:58:03.801Z,26.63
2022-07-29T12:03:08.615Z,26.46
2022-07-29T12:08:14.505Z,26.46
2022-07-29T12:13:17.515Z,26.48
2022-07-29T12:18:19.979Z,26.51
2022-07-29T12:23:29.360Z,26.57
2022-07-29T12:28:39.706Z,26.46
2022-07-29T12:33:41.602Z,26.45
2022-07-29T12:38:43.322Z,26.50
2022-07-29T12:43:54.573Z,26.66
2022-07-29T12:48:57.406Z,26.82
2022-07-29T12:54:14.279Z,27.01
2022-07-29T12:59:18.546Z,27.14
2022-07-29T13:04:30.726Z,27.24
2022-07-29T13:09:43.136Z,27.77
2022-07-29T13:14:46.992Z,28.16
2022-07-29T13:19:53.010Z,28.33
2022-07-29T13:24:55.910Z,28.33
2022-07-29T13:29:58.613Z,28.19
2022-07-29T13:35:01.782Z,28.20
2022-07-29T13:40:08.519Z,28.12
2022-07-29T13:45:11.598Z,28.24
2022-07-29T13:50:13.320Z,28.47
2022-07-29T13:55:15.385Z,28.59
2022-07-29T14:00:17.314Z,28.71
2022-07-29T14:05:18.986Z,29.31
2022-07-29T14:10:20.694Z,29.52
2022-07-29T14:15:22.486Z,29.18
2022-07-29T14:20:24.158Z,29.03
2022-07-29T14:25:25.949Z,29.06
2022-07-29T14:30:27.634Z,29.08
2022-07-29T14:35:29.290Z,28.94
2022-07-29T14:40:31.016Z,28.83
2022-07-29T14:45:32.840Z,28.78
2022-07-29T14:50:34.561Z,28.73
2022-07-29T14:55:36.481Z,28.99
2022-07-29T15:00:38.651Z,29.73
2022-07-29T15:05:40.358Z,29.85
2022-07-29T15:10:42.097Z,29.97
2022-07-29T15:15:45.330Z,30.12
2022-07-29T15:20:47.572Z,30.02
2022-07-29T15:25:49.223Z,29.73
2022-07-29T15:30:50.944Z,29.40
2022-07-29T15:35:52.603Z,29.03
2022-07-29T15:40:54.275Z,28.71
2022-07-29T15:46:14.599Z,28.42
2022-07-29T15:51:16.374Z,28.15
2022-07-29T15:56:18.061Z,27.99
2022-07-29T16:01:19.788Z,27.87
2022-07-29T16:06:21.623Z,27.76
2022-07-29T16:11:23.288Z,27.69
2022-07-29T16:16:25.018Z,27.58
2022-07-29T16:21:26.743Z,27.39
2022-07-29T16:26:28.390Z,27.31
2022-07-29T16:31:31.405Z,27.21
2022-07-29T16:36:33.093Z,27.11
2022-07-29T16:41:34.753Z,27.00
2022-07-29T16:46:37.407Z,26.87
2022-07-29T16:51:40.722Z,26.76
2022-07-29T16:56:42.389Z,26.72
2022-07-29T17:01:44.274Z,26.65
2022-07-29T17:06:46.044Z,26.53
2022-07-29T17:11:55.027Z,26.56
2022-07-29T17:17:01.420Z,26.56
2022-07-29T17:22:10.439Z,26.54
2022-07-29T17:27:14.651Z,26.51
2022-07-29T17:32:16.532Z,26.41
2022-07-29T17:37:18.309Z,26.34
2022-07-29T17:42:20.036Z,26.32
2022-07-29T17:47:21.712Z,26.28
2022-07-29T17:52:23.380Z,26.29
2022-07-29T17:57:26.401Z,26.39
2022-07-29T18:02:28.655Z,26.45
2022-07-29T18:07:30.506Z,26.34
2022-07-29T18:12:32.336Z,26.17
2022-07-29T18:17:49.401Z,26.08
2022-07-29T18:22:55.793Z,25.99
2022-07-29T18:28:00.499Z,25.94
2022-07-29T18:33:20.866Z,25.74
2022-07-29T18:38:23.609Z,25.60
2022-07-29T18:43:25.265Z,25.43
2022-07-29T18:48:26.961Z,25.34
2022-07-29T18:53:28.694Z,25.22
2022-07-29T18:58:30.510Z,25.12
2022-07-29T19:03:32.177Z,24.96
2022-07-29T19:08:33.883Z,24.69
2022-07-29T19:13:37.111Z,24.40
2022-07-29T19:18:38.922Z,24.20
2022-07-29T19:24:05.220Z,24.06
2022-07-29T19:29:02.760Z,23.92
2022-07-29T19:34:04.446Z,23.77
2022-07-29T19:39:06.246Z,23.67
2022-07-29T19:44:07.901Z,23.53
2022-07-29T19:49:10.156Z,23.39
2022-07-29T19:54:11.893Z,23.24
2022-07-29T19:59:13.626Z,23.08
2022-07-29T20:04:15.321Z,22.95
2022-07-29T20:09:20.787Z,22.80
2022-07-29T20:14:22.848Z,22.62
2022-07-29T20:19:24.565Z,22.49
2022-07-29T20:24:26.357Z,22.36
2022-07-29T20:29:28.039Z,22.27
2022-07-29T20:34:29.732Z,22.20
2022-07-29T20:39:31.419Z,22.14
2022-07-29T20:44:33.192Z,22.10
2022-07-29T20:49:36.315Z,22.06
2022-07-29T20:54:38.034Z,22.00
2022-07-29T20:59:44.076Z,21.95
2022-07-29T21:04:47.410Z,21.92
2022-07-29T21:09:49.107Z,21.90
2022-07-29T21:14:52.201Z,21.86
2022-07-29T21:19:55.294Z,21.85
2022-07-29T21:24:57.057Z,21.82
2022-07-29T21:29:58.729Z,21.79
2022-07-29T21:35:01.923Z,21.74
2022-07-29T21:40:04.772Z,21.71
2022-07-29T21:45:06.622Z,21.65
2022-07-29T21:50:08.420Z,21.57
2022-07-29T21:55:11.508Z,21.49
2022-07-29T22:00:16.577Z,21.40
2022-07-29T22:05:18.341Z,21.36
2022-07-29T22:10:20.381Z,21.33
2022-07-29T22:15:22.311Z,21.29
2022-07-29T22:20:24.105Z,21.27
2022-07-29T22:25:25.969Z,21.24
2022-07-29T22:30:27.916Z,21.23
2022-07-29T22:35:29.724Z,21.22
2022-07-29T22:40:32.796Z,21.22
2022-07-29T22:45:35.977Z,21.21
2022-07-29T22:50:37.651Z,21.14
2022-07-29T22:55:39.365Z,21.06
2022-07-29T23:00:41.268Z,21.01
2022-07-29T23:05:42.928Z,20.94
2022-07-29T23:10:44.758Z,20.88
2022-07-29T23:15:46.470Z,20.82
2022-07-29T23:20:48.140Z,20.77
2022-07-29T23:25:49.896Z,20.76
2022-07-29T23:30:51.956Z,20.76
2022-07-29T23:35:53.637Z,20.68
2022-07-29T23:40:55.373Z,20.73
2022-07-29T23:45:58.217Z,20.74
2022-07-29T23:51:01.101Z,20.67
2022-07-29T23:56:02.776Z,20.55
